sensor_id;sensor_type;location;lat;lon;timestamp;pressure;altitude;pressure_sealevel;temperature;humidity
20105;BME280;10212;42.714;23.310;2023-03-01T00:07:00;95651.34;;;4.99;100.00
20105;BME280;10212;42.714;23.310;2023-03-01T00:17:06;95650.25;;;5.10;100.00
20105;BME280;10212;42.714;23.310;2023-03-01T00:27:06;95645.69;;;4.95;100.00
20105;BME280;10212;42.714;23.310;2023-03-01T00:37:07;95629.16;;;4.88;100.00
20105;BME280;10212;42.714;23.310;2023-03-01T00:47:08;95616.91;;;4.63;100.00
20105;BME280;10212;42.714;23.310;2023-03-01T00:57:08;95621.84;;;4.56;100.00
20105;BME280;10212;42.714;23.310;2023-03-01T01:07:09;95615.53;;;4.51;100.00
20105;BME280;10212;42.714;23.310;2023-03-01T01:17:09;95619.22;;;4.48;100.00
20105;BME280;10212;42.714;23.310;2023-03-01T01:27:10;95608.38;;;4.44;100.00
20105;BME280;10212;42.714;23.310;2023-03-01T01:37:10;95619.75;;;4.52;100.00
20105;BME280;10212;42.714;23.310;2023-03-01T01:47:20;95635.13;;;4.62;100.00
20105;BME280;10212;42.714;23.310;2023-03-01T01:57:27;95627.59;;;4.68;99.52
20105;BME280;10212;42.714;23.310;2023-03-01T02:07:30;95616.09;;;4.63;99.39
20105;BME280;10212;42.714;23.310;2023-03-01T02:17:30;95593.53;;;4.73;99.02
20105;BME280;10212;42.714;23.310;2023-03-01T02:27:46;95591.28;;;4.70;98.54
20105;BME280;10212;42.714;23.310;2023-03-01T02:37:48;95604.44;;;4.58;99.63
20105;BME280;10212;42.714;23.310;2023-03-01T02:47:49;95605.56;;;4.56;99.90
20105;BME280;10212;42.714;23.310;2023-03-01T02:57:49;95604.41;;;4.50;100.00
20105;BME280;10212;42.714;23.310;2023-03-01T03:07:51;95603.50;;;4.60;99.50
20105;BME280;10212;42.714;23.310;2023-03-01T03:17:52;95600.25;;;4.57;99.17
20105;BME280;10212;42.714;23.310;2023-03-01T03:27:54;95617.50;;;4.57;98.57
20105;BME280;10212;42.714;23.310;2023-03-01T03:37:59;95618.78;;;4.53;98.55
20105;BME280;10212;42.714;23.310;2023-03-01T03:48:13;95627.78;;;4.49;99.17
20105;BME280;10212;42.714;23.310;2023-03-01T03:58:15;95635.69;;;4.47;99.96
20105;BME280;10212;42.714;23.310;2023-03-01T04:08:21;95628.25;;;4.44;99.57
20105;BME280;10212;42.714;23.310;2023-03-01T04:18:23;95630.91;;;4.34;100.00
20105;BME280;10212;42.714;23.310;2023-03-01T04:28:28;95622.66;;;4.30;100.00
20105;BME280;10212;42.714;23.310;2023-03-01T04:38:29;95631.06;;;4.32;100.00
20105;BME280;10212;42.714;23.310;2023-03-01T04:48:30;95613.97;;;4.31;100.00
20105;BME280;10212;42.714;23.310;2023-03-01T04:58:32;95621.84;;;4.30;100.00
20105;BME280;10212;42.714;23.310;2023-03-01T05:08:32;95618.63;;;4.28;100.00
20105;BME280;10212;42.714;23.310;2023-03-01T05:18:34;95623.94;;;4.08;100.00
20105;BME280;10212;42.714;23.310;2023-03-01T05:28:35;95629.47;;;3.95;100.00
20105;BME280;10212;42.714;23.310;2023-03-01T05:38:35;95631.06;;;4.14;100.00
20105;BME280;10212;42.714;23.310;2023-03-01T05:48:36;95633.84;;;4.39;100.00
20105;BME280;10212;42.714;23.310;2023-03-01T05:58:36;95647.31;;;4.51;99.65
20105;BME280;10212;42.714;23.310;2023-03-01T06:08:38;95663.66;;;4.52;99.43
20105;BME280;10212;42.714;23.310;2023-03-01T06:18:39;95670.66;;;4.60;98.33
20105;BME280;10212;42.714;23.310;2023-03-01T06:28:39;95668.34;;;4.56;98.91
20105;BME280;10212;42.714;23.310;2023-03-01T06:38:40;95666.25;;;4.78;97.92
20105;BME280;10212;42.714;23.310;2023-03-01T06:48:40;95675.59;;;5.06;96.24
20105;BME280;10212;42.714;23.310;2023-03-01T06:58:41;95678.19;;;5.06;94.54
20105;BME280;10212;42.714;23.310;2023-03-01T07:08:41;95676.09;;;5.10;94.16
20105;BME280;10212;42.714;23.310;2023-03-01T07:18:42;95674.97;;;5.04;94.92
20105;BME280;10212;42.714;23.310;2023-03-01T07:28:42;95664.88;;;5.27;94.15
20105;BME280;10212;42.714;23.310;2023-03-01T07:38:43;95651.88;;;5.54;92.49
20105;BME280;10212;42.714;23.310;2023-03-01T07:48:43;95654.25;;;5.90;90.37
20105;BME280;10212;42.714;23.310;2023-03-01T07:58:44;95644.28;;;6.21;86.43
20105;BME280;10212;42.714;23.310;2023-03-01T08:08:45;95649.94;;;6.41;85.48
20105;BME280;10212;42.714;23.310;2023-03-01T08:18:46;95627.38;;;6.83;82.93
20105;BME280;10212;42.714;23.310;2023-03-01T08:28:48;95639.19;;;6.78;82.98
20105;BME280;10212;42.714;23.310;2023-03-01T08:38:49;95630.28;;;6.88;82.84
20105;BME280;10212;42.714;23.310;2023-03-01T08:48:49;95634.47;;;6.98;82.53
20105;BME280;10212;42.714;23.310;2023-03-01T08:58:50;95630.16;;;7.62;79.47
20105;BME280;10212;42.714;23.310;2023-03-01T09:08:50;95621.66;;;8.24;75.39
20105;BME280;10212;42.714;23.310;2023-03-01T09:18:52;95625.50;;;8.28;73.28
20105;BME280;10212;42.714;23.310;2023-03-01T09:28:54;95621.19;;;7.96;75.07
20105;BME280;10212;42.714;23.310;2023-03-01T09:38:57;95614.97;;;8.06;75.03
20105;BME280;10212;42.714;23.310;2023-03-01T09:49:01;95611.78;;;7.95;75.85
20105;BME280;10212;42.714;23.310;2023-03-01T10:09:15;95576.53;;;8.40;72.34
20105;BME280;10212;42.714;23.310;2023-03-01T10:19:28;95581.25;;;8.75;71.29
20105;BME280;10212;42.714;23.310;2023-03-01T10:29:37;95554.19;;;8.84;70.22
20105;BME280;10212;42.714;23.310;2023-03-01T10:49:58;95556.97;;;8.29;70.91
20105;BME280;10212;42.714;23.310;2023-03-01T11:00:24;95550.56;;;9.00;69.12
20105;BME280;10212;42.714;23.310;2023-03-01T11:10:33;95557.53;;;9.15;69.51
20105;BME280;10212;42.714;23.310;2023-03-01T11:20:36;95547.28;;;8.61;72.50
20105;BME280;10212;42.714;23.310;2023-03-01T11:30:46;95544.44;;;9.08;71.15
20105;BME280;10212;42.714;23.310;2023-03-01T11:41:08;95530.28;;;9.70;68.59
20105;BME280;10212;42.714;23.310;2023-03-01T11:51:23;95522.03;;;9.44;69.87
20105;BME280;10212;42.714;23.310;2023-03-01T12:11:51;95507.69;;;8.51;72.76
20105;BME280;10212;42.714;23.310;2023-03-01T12:22:20;95487.34;;;9.22;70.31
20105;BME280;10212;42.714;23.310;2023-03-01T12:32:52;95480.88;;;9.11;69.99
20105;BME280;10212;42.714;23.310;2023-03-01T12:52:57;95471.84;;;9.28;69.73
20105;BME280;10212;42.714;23.310;2023-03-01T13:13:24;95479.06;;;9.77;67.83
20105;BME280;10212;42.714;23.310;2023-03-01T13:23:28;95480.19;;;9.24;70.41
20105;BME280;10212;42.714;23.310;2023-03-01T13:43:38;95483.84;;;8.32;75.40
20105;BME280;10212;42.714;23.310;2023-03-01T13:53:44;95475.25;;;8.47;74.79
20105;BME280;10212;42.714;23.310;2023-03-01T14:03:57;95465.31;;;8.20;76.28
20105;BME280;10212;42.714;23.310;2023-03-01T14:24:21;95463.53;;;7.82;79.55
20105;BME280;10212;42.714;23.310;2023-03-01T14:34:24;95460.28;;;7.65;80.39
20105;BME280;10212;42.714;23.310;2023-03-01T14:44:24;95462.31;;;7.07;83.77
20105;BME280;10212;42.714;23.310;2023-03-01T14:54:26;95464.19;;;6.90;84.04
20105;BME280;10212;42.714;23.310;2023-03-01T15:04:28;95456.50;;;6.73;85.13
20105;BME280;10212;42.714;23.310;2023-03-01T15:14:41;95448.53;;;6.43;87.43
20105;BME280;10212;42.714;23.310;2023-03-01T15:24:49;95450.84;;;6.30;88.65
20105;BME280;10212;42.714;23.310;2023-03-01T15:34:50;95468.69;;;6.08;89.78
20105;BME280;10212;42.714;23.310;2023-03-01T15:45:29;95460.59;;;5.94;91.02
20105;BME280;10212;42.714;23.310;2023-03-01T15:55:30;95451.25;;;5.76;91.79
20105;BME280;10212;42.714;23.310;2023-03-01T16:05:34;95438.97;;;5.62;93.25
20105;BME280;10212;42.714;23.310;2023-03-01T16:15:36;95449.97;;;5.39;94.68
20105;BME280;10212;42.714;23.310;2023-03-01T16:25:38;95447.38;;;5.47;94.58
20105;BME280;10212;42.714;23.310;2023-03-01T16:35:41;95447.53;;;5.54;93.87
20105;BME280;10212;42.714;23.310;2023-03-01T16:45:43;95443.31;;;5.61;93.44
20105;BME280;10212;42.714;23.310;2023-03-01T16:55:52;95437.81;;;5.56;93.05
20105;BME280;10212;42.714;23.310;2023-03-01T17:05:53;95444.94;;;5.37;93.68
20105;BME280;10212;42.714;23.310;2023-03-01T17:15:54;95432.81;;;5.21;94.21
20105;BME280;10212;42.714;23.310;2023-03-01T17:25:54;95448.00;;;5.16;94.42
20105;BME280;10212;42.714;23.310;2023-03-01T17:35:55;95442.34;;;5.29;93.29
20105;BME280;10212;42.714;23.310;2023-03-01T17:45:57;95451.41;;;5.33;93.72
20105;BME280;10212;42.714;23.310;2023-03-01T17:56:00;95455.75;;;5.33;94.07
20105;BME280;10212;42.714;23.310;2023-03-01T18:06:01;95461.06;;;5.06;95.00
20105;BME280;10212;42.714;23.310;2023-03-01T18:16:11;95464.09;;;4.85;96.50
20105;BME280;10212;42.714;23.310;2023-03-01T18:26:12;95474.88;;;4.72;97.45
20105;BME280;10212;42.714;23.310;2023-03-01T18:36:21;95468.69;;;4.56;97.87
20105;BME280;10212;42.714;23.310;2023-03-01T18:46:22;95478.94;;;4.47;99.21
20105;BME280;10212;42.714;23.310;2023-03-01T18:56:24;95493.09;;;4.70;98.35
20105;BME280;10212;42.714;23.310;2023-03-01T19:06:28;95491.88;;;4.91;96.28
20105;BME280;10212;42.714;23.310;2023-03-01T19:16:32;95486.06;;;4.97;95.89
20105;BME280;10212;42.714;23.310;2023-03-01T19:26:33;95490.31;;;5.15;95.60
20105;BME280;10212;42.714;23.310;2023-03-01T19:36:34;95502.72;;;5.03;96.22
20105;BME280;10212;42.714;23.310;2023-03-01T19:46:35;95505.78;;;4.98;96.54
20105;BME280;10212;42.714;23.310;2023-03-01T19:56:35;95513.56;;;5.06;96.61
20105;BME280;10212;42.714;23.310;2023-03-01T20:06:37;95526.16;;;5.01;97.18
20105;BME280;10212;42.714;23.310;2023-03-01T20:16:38;95529.38;;;4.95;98.05
20105;BME280;10212;42.714;23.310;2023-03-01T20:26:39;95533.81;;;4.76;99.06
20105;BME280;10212;42.714;23.310;2023-03-01T20:36:40;95537.88;;;4.79;99.37
20105;BME280;10212;42.714;23.310;2023-03-01T20:46:41;95522.97;;;4.73;99.38
20105;BME280;10212;42.714;23.310;2023-03-01T20:56:42;95531.91;;;4.87;98.58
20105;BME280;10212;42.714;23.310;2023-03-01T21:06:45;95531.41;;;4.83;98.24
20105;BME280;10212;42.714;23.310;2023-03-01T21:16:46;95533.88;;;4.85;98.23
20105;BME280;10212;42.714;23.310;2023-03-01T21:26:46;95525.72;;;4.71;99.45
20105;BME280;10212;42.714;23.310;2023-03-01T21:36:47;95534.75;;;4.67;99.18
20105;BME280;10212;42.714;23.310;2023-03-01T21:46:48;95526.53;;;4.72;99.13
20105;BME280;10212;42.714;23.310;2023-03-01T21:56:49;95524.38;;;4.58;98.87
20105;BME280;10212;42.714;23.310;2023-03-01T22:06:50;95527.28;;;4.64;98.47
20105;BME280;10212;42.714;23.310;2023-03-01T22:16:53;95532.81;;;4.69;98.00
20105;BME280;10212;42.714;23.310;2023-03-01T22:26:54;95533.03;;;4.76;97.03
20105;BME280;10212;42.714;23.310;2023-03-01T22:36:54;95531.22;;;4.76;96.62
20105;BME280;10212;42.714;23.310;2023-03-01T22:46:55;95520.56;;;4.79;95.79
20105;BME280;10212;42.714;23.310;2023-03-01T22:56:55;95523.88;;;4.90;95.26
20105;BME280;10212;42.714;23.310;2023-03-01T23:06:56;95524.91;;;4.70;96.45
20105;BME280;10212;42.714;23.310;2023-03-01T23:16:57;95512.41;;;4.49;97.59
20105;BME280;10212;42.714;23.310;2023-03-01T23:27:01;95497.03;;;4.47;97.59
20105;BME280;10212;42.714;23.310;2023-03-01T23:37:03;95516.03;;;4.38;99.04
20105;BME280;10212;42.714;23.310;2023-03-01T23:47:03;95515.72;;;4.41;98.47
20105;BME280;10212;42.714;23.310;2023-03-01T23:57:04;95512.66;;;4.38;98.68
